Time;durP1;ratioP1;P1;durP2;ratioP2;P2;SDS_P1;SDS_P2;PMS_P1;PMS_P2;Temp;Humidity;BMP_temperature;BMP_pressure;BME280_temperature;BME280_humidity;BME280_pressure;Samples;Min_cycle;Max_cycle;Signal;HPM_P1;HPM_P2
2022/11/11 05:22:38;;;;;;;2.10;1.67;;;;;;;4.45;100.00;101872.84;5109665;27;20331;-73
2022/11/11 05:25:25;;;;;;;3.17;2.13;;;;;;;4.57;100.00;101885.28;5109709;28;20530;-71
2022/11/11 05:28:09;;;;;;;3.10;2.38;;;;;;;4.58;100.00;101889.59;5109863;28;20050;-72
2022/11/11 05:30:53;;;;;;;10.18;2.35;;;;;;;4.54;100.00;101894.22;5109277;28;20096;-72
2022/11/11 05:33:37;;;;;;;2.22;1.67;;;;;;;4.54;100.00;101894.22;5110107;28;20470;-72
2022/11/11 05:36:21;;;;;;;4.50;1.85;;;;;;;4.54;100.00;101896.84;5109915;28;20078;-73
2022/11/11 05:39:05;;;;;;;3.90;2.30;;;;;;;4.55;100.00;101903.81;5109398;28;20096;-73
2022/11/11 05:41:49;;;;;;;2.15;1.85;;;;;;;4.56;100.00;101900.28;5109360;28;20176;-72
2022/11/11 05:44:33;;;;;;;8.35;3.08;;;;;;;4.61;100.00;101892.88;5108251;28;20166;-72
2022/11/11 05:47:17;;;;;;;3.75;2.40;;;;;;;4.68;100.00;101905.72;5109130;28;20587;-73
2022/11/11 05:50:01;;;;;;;3.35;2.30;;;;;;;4.73;100.00;101903.66;5109282;28;20105;-72
2022/11/11 05:52:49;;;;;;;2.72;1.90;;;;;;;4.65;100.00;101898.84;5109353;28;20436;-72
2022/11/11 05:55:33;;;;;;;3.75;2.42;;;;;;;4.66;100.00;101904.97;5109117;28;20421;-72
2022/11/11 05:58:18;;;;;;;3.55;1.77;;;;;;;4.60;100.00;101909.69;5109338;28;20055;-70
2022/11/11 06:01:02;;;;;;;4.47;1.95;;;;;;;4.61;100.00;101907.88;5108902;28;20104;-71
2022/11/11 06:03:46;;;;;;;4.18;2.15;;;;;;;4.60;100.00;101907.03;5109100;28;20054;-72
2022/11/11 06:06:31;;;;;;;2.90;1.90;;;;;;;4.59;100.00;101905.34;5108802;28;20425;-72
2022/11/11 06:09:15;;;;;;;3.10;2.25;;;;;;;4.66;100.00;101908.44;5108803;28;20084;-73
2022/11/11 06:12:00;;;;;;;4.15;2.50;;;;;;;4.71;100.00;101903.75;5108706;28;20108;-72
2022/11/11 06:14:44;;;;;;;3.60;2.20;;;;;;;4.71;100.00;101906.38;5108778;28;20050;-72
2022/11/11 06:17:28;;;;;;;3.33;2.38;;;;;;;4.75;100.00;101905.22;5107873;28;20525;-74
2022/11/11 06:20:12;;;;;;;3.05;2.17;;;;;;;4.83;100.00;101912.69;5108549;28;20054;-73
2022/11/11 06:22:57;;;;;;;4.68;2.28;;;;;;;4.83;100.00;101908.28;5108963;28;20082;-73
2022/11/11 06:28:46;;;;;;;4.03;2.15;;;;;;;4.90;100.00;101911.38;5108969;28;20050;-73
2022/11/11 06:31:30;;;;;;;4.80;2.53;;;;;;;4.88;100.00;101913.25;5107922;28;20070;-73
2022/11/11 06:34:14;;;;;;;4.53;1.90;;;;;;;4.92;100.00;101922.69;5094649;28;20117;-73
2022/11/11 06:36:58;;;;;;;4.78;2.10;;;;;;;4.93;100.00;101921.72;5094633;28;20389;-72
2022/11/11 06:39:42;;;;;;;4.28;2.38;;;;;;;4.96;100.00;101924.19;5094720;28;20056;-73
2022/11/11 06:42:26;;;;;;;3.47;2.17;;;;;;;4.95;100.00;101927.75;5094569;28;20119;-73
2022/11/11 06:45:10;;;;;;;4.28;2.88;;;;;;;4.96;100.00;101929.47;5094529;28;20132;-73
2022/11/11 06:47:54;;;;;;;3.80;2.53;;;;;;;4.93;100.00;101921.72;5093678;28;20447;-73
2022/11/11 06:50:38;;;;;;;4.65;2.83;;;;;;;5.00;100.00;101923.03;5094179;28;20054;-73
2022/11/11 06:53:23;;;;;;;3.58;2.30;;;;;;;5.06;100.00;101921.81;5094473;28;20054;-74
2022/11/11 06:56:07;;;;;;;3.95;2.20;;;;;;;5.06;100.00;101927.94;5094597;28;20051;-74
2022/11/11 06:58:51;;;;;;;2.17;1.73;;;;;;;5.09;100.00;101929.56;5094406;28;20070;-73
2022/11/11 07:01:35;;;;;;;3.60;1.92;;;;;;;5.07;100.00;101932.28;5093989;28;20131;-72
2022/11/11 07:04:19;;;;;;;6.10;2.10;;;;;;;5.02;100.00;101931.72;5094313;28;20512;-73
2022/11/11 07:07:03;;;;;;;3.42;2.50;;;;;;;5.01;100.00;101927.38;5094349;28;20051;-75
2022/11/11 07:09:47;;;;;;;5.15;2.42;;;;;;;5.07;100.00;101937.56;5094415;28;20054;-74
2022/11/11 07:12:30;;;;;;;3.60;2.13;;;;;;;5.02;100.00;101938.78;5093887;28;20055;-74
2022/11/11 07:15:14;;;;;;;3.70;2.65;;;;;;;4.97;100.00;101933.81;5093801;28;20139;-72
2022/11/11 07:17:59;;;;;;;2.85;2.25;;;;;;;4.86;100.00;101933.63;5094201;28;20046;-74
2022/11/11 07:20:43;;;;;;;2.45;2.08;;;;;;;5.03;100.00;101943.16;5093600;28;20110;-73
2022/11/11 07:23:27;;;;;;;6.03;2.40;;;;;;;5.02;100.00;101944.94;5092721;28;20054;-72
2022/11/11 07:26:11;;;;;;;7.13;2.58;;;;;;;4.95;100.00;101946.25;5093988;28;20050;-74
2022/11/11 07:28:55;;;;;;;3.92;1.77;;;;;;;5.01;100.00;101947.66;5093758;28;20145;-72
2022/11/11 07:31:39;;;;;;;2.97;2.10;;;;;;;5.08;100.00;101944.53;5093236;28;20051;-71
2022/11/11 07:34:22;;;;;;;2.40;1.77;;;;;;;5.15;100.00;101947.63;5093788;28;20400;-72
2022/11/11 07:37:06;;;;;;;3.03;2.05;;;;;;;5.18;100.00;101943.00;5093633;28;20047;-72
2022/11/11 07:39:50;;;;;;;9.55;2.70;;;;;;;5.13;100.00;101937.16;5093711;28;20058;-71
2022/11/11 07:42:35;;;;;;;2.35;1.70;;;;;;;5.20;100.00;101942.91;5093576;28;20046;-72
2022/11/11 07:45:19;;;;;;;2.67;2.03;;;;;;;5.16;100.00;101947.56;5092192;28;20412;-73
2022/11/11 07:48:03;;;;;;;3.85;2.17;;;;;;;5.20;100.00;101953.47;5093274;28;20059;-72
2022/11/11 07:50:47;;;;;;;2.90;1.65;;;;;;;5.22;100.00;101948.97;5092863;28;20051;-72
2022/11/11 07:53:32;;;;;;;3.58;2.08;;;;;;;5.22;100.00;101950.75;5093205;28;20090;-73
2022/11/11 07:56:16;;;;;;;2.67;1.85;;;;;;;5.26;100.00;101950.44;5093059;28;20051;-73
2022/11/11 07:59:00;;;;;;;3.33;2.20;;;;;;;5.32;100.00;101944.78;5092984;28;20058;-71
2022/11/11 08:01:44;;;;;;;3.50;1.58;;;;;;;5.37;100.00;101947.13;5093035;28;20137;-72
2022/11/11 08:04:28;;;;;;;2.70;1.70;;;;;;;5.40;100.00;101946.91;5092947;28;20059;-73
2022/11/11 08:07:12;;;;;;;3.05;1.80;;;;;;;5.44;100.00;101951.06;5091977;28;20059;-74
2022/11/11 08:09:59;;;;;;;2.20;1.98;;;;;;;5.42;100.00;101943.25;5093563;28;20515;-73
2022/11/11 08:15:47;;;;;;;3.20;2.15;;;;;;;5.47;100.00;101957.94;5092947;28;20055;-71
2022/11/11 08:18:33;;;;;;;2.70;2.00;;;;;;;5.53;100.00;101965.47;5092804;28;20038;-71
2022/11/11 08:21:17;;;;;;;3.25;2.15;;;;;;;5.57;100.00;101965.19;5091220;28;20089;-74
2022/11/11 08:24:00;;;;;;;2.63;1.63;;;;;;;5.56;100.00;101963.50;5092558;28;20121;-72
2022/11/11 08:26:45;;;;;;;5.88;2.47;;;;;;;5.57;100.00;101964.34;5092600;28;20110;-71
2022/11/11 08:29:29;;;;;;;3.38;2.25;;;;;;;5.61;100.00;101963.22;5092726;28;20046;-72
2022/11/11 08:32:14;;;;;;;2.55;2.13;;;;;;;5.58;100.00;101960.75;5092341;28;20508;-72
2022/11/11 08:34:58;;;;;;;3.10;2.35;;;;;;;5.47;100.00;101969.38;5092481;28;20055;-72
2022/11/11 08:37:42;;;;;;;8.70;2.83;;;;;;;5.52;100.00;101958.50;5092262;28;20100;-71
2022/11/11 08:40:26;;;;;;;3.35;2.25;;;;;;;5.52;100.00;101951.41;5091944;28;20118;-72
2022/11/11 08:43:10;;;;;;;2.88;1.92;;;;;;;5.60;100.00;101953.56;5092300;28;20097;-72
2022/11/11 08:45:53;;;;;;;3.60;2.33;;;;;;;5.50;100.00;101948.03;5092119;28;20059;-72
2022/11/11 08:48:37;;;;;;;4.00;1.77;;;;;;;5.47;100.00;101950.84;5092336;28;20117;-72
2022/11/11 08:51:21;;;;;;;2.95;2.08;;;;;;;5.47;100.00;101953.50;5091689;28;20520;-73
2022/11/11 08:54:05;;;;;;;3.03;2.13;;;;;;;5.44;100.00;101954.56;5092020;28;20546;-73
2022/11/11 08:56:49;;;;;;;4.65;2.25;;;;;;;5.52;100.00;101951.41;5091676;28;20075;-72
2022/11/11 08:59:33;;;;;;;4.15;2.17;;;;;;;5.54;100.00;101949.53;5092032;28;20474;-73
2022/11/11 09:02:17;;;;;;;2.58;1.90;;;;;;;5.57;100.00;101956.41;5092071;28;20264;-73
2022/11/11 09:05:02;;;;;;;2.63;2.03;;;;;;;5.65;100.00;101957.59;5091943;28;20324;-73
2022/11/11 09:07:46;;;;;;;3.20;2.25;;;;;;;5.65;100.00;101957.59;5091975;28;20112;-73
2022/11/11 09:10:30;;;;;;;4.20;2.50;;;;;;;5.75;100.00;101957.88;5091464;28;20051;-73
2022/11/11 09:13:14;;;;;;;2.58;2.17;;;;;;;5.71;100.00;101949.28;5091839;28;20192;-73
2022/11/11 09:15:58;;;;;;;4.07;2.65;;;;;;;5.91;100.00;101960.38;5091800;28;20585;-74
2022/11/11 09:18:42;;;;;;;2.85;2.22;;;;;;;5.95;100.00;101959.22;5091698;28;20089;-74
2022/11/11 09:21:26;;;;;;;3.65;2.33;;;;;;;6.04;100.00;101958.59;5091339;28;20047;-73
2022/11/11 09:24:10;;;;;;;3.75;2.35;;;;;;;6.08;100.00;101959.25;5092000;28;20071;-73
2022/11/11 09:26:54;;;;;;;4.57;2.40;;;;;;;6.06;100.00;101955.84;5091960;28;20127;-72
2022/11/11 09:29:38;;;;;;;4.60;2.42;;;;;;;6.14;100.00;101959.69;5091699;28;20051;-73
2022/11/11 09:32:22;;;;;;;3.72;2.22;;;;;;;6.19;100.00;101956.72;5091515;28;20051;-71
2022/11/11 09:35:06;;;;;;;3.45;2.17;;;;;;;6.35;100.00;101956.56;5091612;28;20051;-73
2022/11/11 09:37:55;;;;;;;3.65;2.47;;;;;;;6.33;100.00;101955.81;5091386;28;20189;-72
2022/11/11 09:41:17;;;;;;;3.78;2.35;;;;;;;6.48;100.00;101950.31;5091151;28;20507;-73
2022/11/11 09:44:02;;;;;;;4.13;2.30;;;;;;;6.47;100.00;101953.06;5091455;28;20131;-70
2022/11/11 09:47:14;;;;;;;3.53;2.38;;;;;;;6.58;100.00;101945.22;5091408;28;20131;-72
2022/11/11 09:50:04;;;;;;;5.18;2.72;;;;;;;6.71;100.00;101948.69;5090475;28;20097;-73
2022/11/11 09:53:03;;;;;;;7.32;3.35;;;;;;;6.61;100.00;101950.31;5091658;28;20058;-72
2022/11/11 09:56:08;;;;;;;4.22;2.50;;;;;;;6.74;100.00;101950.31;5091571;28;20515;-70
2022/11/11 09:59:04;;;;;;;4.63;3.03;;;;;;;6.71;100.00;101954.00;5091321;28;20047;-70
2022/11/11 10:01:55;;;;;;;4.25;2.38;;;;;;;6.77;100.00;101958.03;5090991;28;20035;-70
2022/11/11 10:04:59;;;;;;;4.03;2.70;;;;;;;6.83;100.00;101956.75;5091338;28;20070;-70
2022/11/11 10:07:47;;;;;;;4.88;2.92;;;;;;;6.97;100.00;101956.63;5092312;28;20058;-70
2022/11/11 10:10:46;;;;;;;4.97;3.17;;;;;;;6.96;100.00;101958.44;5094679;28;20101;-71
2022/11/11 10:13:35;;;;;;;4.72;3.13;;;;;;;7.09;100.00;101953.09;5094992;28;20100;-72
2022/11/11 10:16:25;;;;;;;4.45;3.08;;;;;;;7.11;100.00;101953.00;5095101;28;20105;-73
2022/11/11 10:19:30;;;;;;;4.22;2.90;;;;;;;7.24;100.00;101952.03;5094892;28;20093;-71
2022/11/11 10:22:17;;;;;;;5.30;2.63;;;;;;;7.28;100.00;101957.94;5094860;28;20125;-74
2022/11/11 10:25:08;;;;;;;4.45;2.78;;;;;;;7.38;100.00;101963.44;5095494;28;20400;-73
2022/11/11 10:27:55;;;;;;;6.72;3.15;;;;;;;7.37;100.00;101959.94;5094645;28;20050;-72
2022/11/11 10:30:40;;;;;;;5.55;2.85;;;;;;;7.43;100.00;101961.28;5094504;28;20043;-71
2022/11/11 10:33:29;;;;;;;4.53;2.97;;;;;;;7.42;100.00;101954.28;5094700;28;20094;-73
2022/11/11 10:36:17;;;;;;;4.22;2.97;;;;;;;7.42;100.00;101959.59;5094750;28;20066;-72
2022/11/11 10:39:02;;;;;;;;;;;;;;;7.49;100.00;101968.78;5095199;28;20186;-73
2022/11/11 10:41:49;;;;;;;4.35;2.67;;;;;;;7.43;100.00;101967.44;5094636;28;19942;-73
2022/11/11 10:44:35;;;;;;;4.90;3.13;;;;;;;7.52;100.00;101964.13;5094541;28;20529;-74
2022/11/11 10:47:27;;;;;;;4.97;2.97;;;;;;;7.38;100.00;101952.84;5094414;28;20047;-73
2022/11/11 10:50:17;;;;;;;4.85;2.40;;;;;;;7.26;100.00;101951.91;5094151;28;20109;-72
2022/11/11 10:53:21;;;;;;;4.20;2.40;;;;;;;7.39;100.00;101951.88;5094381;28;20046;-73
2022/11/11 10:56:22;;;;;;;3.90;2.40;;;;;;;7.37;100.00;101946.69;5094467;28;20129;-74
2022/11/11 10:59:15;;;;;;;3.17;2.50;;;;;;;7.28;100.00;101957.94;5093346;28;20051;-74
2022/11/11 11:02:16;;;;;;;6.32;2.55;;;;;;;7.43;100.00;101942.72;5093900;28;20047;-73
2022/11/11 11:05:08;;;;;;;4.00;2.55;;;;;;;7.31;100.00;101941.84;5093132;28;20047;-74
2022/11/11 11:08:13;;;;;;;5.05;3.05;;;;;;;7.38;100.00;101939.59;5094232;28;20460;-73
2022/11/11 11:11:01;;;;;;;4.20;3.10;;;;;;;7.52;100.00;101947.38;5093971;28;20050;-74
2022/11/11 11:13:51;;;;;;;5.15;3.38;;;;;;;7.57;100.00;101945.25;5094242;28;20070;-73
2022/11/11 11:16:43;;;;;;;6.55;3.53;;;;;;;7.69;100.00;101931.03;5094297;28;20289;-74
2022/11/11 11:19:29;;;;;;;5.55;3.42;;;;;;;7.78;100.00;101938.34;5094331;28;20062;-74
2022/11/11 11:22:12;;;;;;;4.72;3.13;;;;;;;7.88;100.00;101928.72;5092529;28;20051;-74
2022/11/11 11:25:11;;;;;;;5.85;3.67;;;;;;;8.02;100.00;101926.81;5094118;28;20051;-73
2022/11/11 11:28:15;;;;;;;7.10;3.65;;;;;;;7.83;100.00;101924.75;5092729;28;20184;-73
2022/11/11 11:31:00;;;;;;;3.90;3.05;;;;;;;7.99;100.00;101927.06;5093324;28;20054;-73
2022/11/11 11:33:53;;;;;;;5.85;3.50;;;;;;;7.92;100.00;101916.06;5094063;28;20087;-72
2022/11/11 11:36:37;;;;;;;5.47;3.45;;;;;;;7.91;100.00;101910.88;5093470;28;20101;-72
2022/11/11 11:39:31;;;;;;;7.20;3.97;;;;;;;7.91;100.00;101905.59;5093710;28;20516;-72
2022/11/11 11:42:45;;;;;;;7.53;3.88;;;;;;;8.00;100.00;101905.72;5093261;28;20039;-73
2022/11/11 11:45:29;;;;;;;4.47;3.58;;;;;;;7.99;100.00;101897.88;5091461;28;20561;-72
2022/11/11 11:48:45;;;;;;;5.78;3.67;;;;;;;8.00;100.00;101897.75;5093481;28;20055;-73
2022/11/11 11:51:32;;;;;;;4.28;3.63;;;;;;;7.99;100.00;101900.53;5087043;28;20120;-71
2022/11/11 11:54:37;;;;;;;4.63;3.38;;;;;;;8.02;100.00;101887.03;5092114;28;20042;-72
2022/11/11 11:57:52;;;;;;;7.50;5.13;;;;;;;8.06;100.00;101888.47;5093222;28;20557;-72
2022/11/11 12:01:00;;;;;;;6.15;3.85;;;;;;;8.13;100.00;101895.00;5092763;28;20081;-72
2022/11/11 12:04:06;;;;;;;;;;;;;;;8.20;100.00;101896.22;5093446;28;20080;-72
2022/11/11 12:06:53;;;;;;;6.40;4.05;;;;;;;8.17;100.00;101893.81;5084964;28;19958;-71
2022/11/11 12:09:55;;;;;;;5.88;4.25;;;;;;;8.20;100.00;101901.53;5092911;28;20054;-72
2022/11/11 12:12:54;;;;;;;8.68;3.92;;;;;;;8.21;100.00;101895.25;5092852;28;20097;-72
2022/11/11 12:15:45;;;;;;;6.75;4.05;;;;;;;8.24;100.00;101895.03;5092731;28;20492;-71
2022/11/11 12:18:38;;;;;;;6.35;3.97;;;;;;;8.32;100.00;101907.72;5093186;28;20104;-72
2022/11/11 12:21:28;;;;;;;7.13;4.50;;;;;;;8.29;100.00;101908.81;5091216;28;20055;-73
2022/11/11 12:24:34;;;;;;;7.50;4.30;;;;;;;8.26;100.00;101908.19;5092653;28;20082;-72
2022/11/11 12:27:30;;;;;;;5.90;4.35;;;;;;;8.22;100.00;101904.94;5092812;28;20086;-72
2022/11/11 12:30:20;;;;;;;5.38;4.15;;;;;;;8.08;100.00;101910.44;5092064;28;20108;-73
2022/11/11 12:33:31;;;;;;;5.05;3.45;;;;;;;8.32;100.00;101905.91;5091843;28;20115;-72
2022/11/11 12:36:57;;;;;;;6.22;4.45;;;;;;;8.40;100.00;101903.53;5092607;28;20112;-73
2022/11/11 12:40:15;;;;;;;8.32;4.38;;;;;;;8.36;100.00;101909.22;5077369;28;20118;-73
2022/11/11 12:43:02;;;;;;;;;;;;;;;8.27;100.00;101910.72;5092689;28;20126;-71
2022/11/11 12:45:58;;;;;;;6.22;4.55;;;;;;;8.43;100.00;101900.66;5092208;28;19919;-73
2022/11/11 12:49:20;;;;;;;9.93;5.80;;;;;;;8.35;100.00;101896.88;5092578;28;20050;-74
2022/11/11 12:52:28;;;;;;;6.40;3.92;;;;;;;8.38;100.00;101901.97;5083270;28;20096;-74
2022/11/11 12:55:13;;;;;;;5.30;3.47;;;;;;;8.50;100.00;101902.84;5092096;28;20039;-73
2022/11/11 12:58:21;;;;;;;7.22;4.72;;;;;;;8.50;100.00;101908.16;5092297;28;20046;-73
2022/11/11 13:01:17;;;;;;;10.73;4.97;;;;;;;8.44;100.00;101901.50;5090675;28;20047;-72
2022/11/11 13:04:19;;;;;;;7.65;4.85;;;;;;;8.45;100.00;101905.00;5092049;28;20101;-74
2022/11/11 13:07:28;;;;;;;6.28;4.35;;;;;;;8.47;100.00;101895.94;5091796;28;20082;-74
2022/11/11 13:10:30;;;;;;;9.40;4.75;;;;;;;8.50;100.00;101901.03;5091579;28;20507;-71
2022/11/11 13:13:34;;;;;;;6.90;4.93;;;;;;;8.57;100.00;101909.34;5092134;28;20051;-73
2022/11/11 13:16:22;;;;;;;8.90;4.97;;;;;;;8.47;100.00;101906.56;5091758;28;20520;-73
2022/11/11 13:19:23;;;;;;;6.35;4.47;;;;;;;8.60;100.00;101911.75;5091701;28;20047;-73
2022/11/11 13:22:18;;;;;;;8.43;4.53;;;;;;;8.61;100.00;101918.78;5091532;28;20125;-74
2022/11/11 13:25:04;;;;;;;8.38;4.75;;;;;;;8.50;100.00;101905.50;5091947;28;20630;-74
2022/11/11 13:28:05;;;;;;;9.63;5.00;;;;;;;8.46;100.00;101896.91;5091922;28;20515;-72
2022/11/11 13:31:04;;;;;;;9.73;4.55;;;;;;;8.50;100.00;101905.50;5091485;28;20051;-74
2022/11/11 13:33:52;;;;;;;8.20;4.78;;;;;;;8.52;100.00;101901.75;5091534;28;20135;-72
2022/11/11 13:36:45;;;;;;;6.70;4.63;;;;;;;8.47;100.00;101901.25;5091411;28;20051;-74
2022/11/11 13:39:58;;;;;;;8.80;4.88;;;;;;;8.37;100.00;101900.28;5091591;28;20504;-72
2022/11/11 13:42:50;;;;;;;7.40;4.60;;;;;;;8.28;100.00;101890.31;5090652;28;20043;-72
2022/11/11 13:45:41;;;;;;;7.25;4.05;;;;;;;8.31;100.00;101892.75;5095620;28;20039;-72
2022/11/11 13:48:32;;;;;;;8.18;4.97;;;;;;;8.26;100.00;101898.41;5095495;28;20130;-69
2022/11/11 13:51:41;;;;;;;7.43;4.43;;;;;;;8.24;100.00;101889.72;5095014;28;20074;-72
2022/11/11 13:54:30;;;;;;;10.60;5.20;;;;;;;8.26;100.00;101890.44;5095371;28;20120;-73
2022/11/11 13:57:25;;;;;;;11.10;5.47;;;;;;;8.26;100.00;101884.31;5095508;28;20454;-72
2022/11/11 14:00:15;;;;;;;7.38;4.63;;;;;;;8.27;100.00;101900.09;5095148;28;20093;-70
2022/11/11 14:03:18;;;;;;;7.38;4.20;;;;;;;8.17;100.00;101896.47;5095138;28;20038;-70
2022/11/11 14:06:15;;;;;;;9.30;5.53;;;;;;;8.14;100.00;101896.69;5094997;28;20051;-70
2022/11/11 14:08:59;;;;;;;10.88;5.82;;;;;;;8.10;100.00;101897.91;5095079;28;20477;-71
2022/11/11 14:11:43;;;;;;;8.25;5.15;;;;;;;8.05;100.00;101895.59;5094658;28;20055;-70
2022/11/11 14:14:30;;;;;;;9.43;5.85;;;;;;;8.10;100.00;101914.69;5094968;28;20101;-70
2022/11/11 14:17:16;;;;;;;8.35;5.03;;;;;;;8.16;100.00;101916.03;5095053;28;20055;-70
2022/11/11 14:20:28;;;;;;;8.15;5.07;;;;;;;8.06;100.00;101909.72;5094674;28;20086;-71
2022/11/11 14:23:25;;;;;;;8.57;5.63;;;;;;;8.10;100.00;101916.50;5094739;28;20039;-72
2022/11/11 14:26:09;;;;;;;10.82;5.90;;;;;;;8.08;100.00;101921.06;5094683;28;20043;-70
2022/11/11 14:28:57;;;;;;;7.95;5.25;;;;;;;8.04;100.00;101919.63;5094693;28;20104;-71
2022/11/11 14:31:52;;;;;;;10.48;5.25;;;;;;;8.10;100.00;101914.69;5094214;28;20132;-70
2022/11/11 14:34:42;;;;;;;11.90;5.47;;;;;;;8.15;100.00;101917.00;5094669;28;20082;-71
2022/11/11 14:37:33;;;;;;;9.05;5.00;;;;;;;8.09;100.00;101913.00;5094543;28;20054;-72
2022/11/11 14:40:28;;;;;;;12.32;6.30;;;;;;;8.07;100.00;101908.75;5094339;28;20050;-72
2022/11/11 14:43:31;;;;;;;10.10;5.30;;;;;;;8.08;100.00;101900.66;5094895;28;20055;-72
2022/11/11 14:46:15;;;;;;;9.30;5.57;;;;;;;8.00;100.00;101900.41;5094703;28;20051;-72
2022/11/11 14:49:01;;;;;;;11.65;5.40;;;;;;;7.95;100.00;101893.75;5093362;28;20091;-72
2022/11/11 14:51:55;;;;;;;9.65;5.75;;;;;;;8.00;100.00;101907.53;5093945;28;20172;-71
2022/11/11 14:54:52;;;;;;;10.25;5.20;;;;;;;7.87;100.00;101894.34;5093719;28;20047;-72
2022/11/11 14:57:43;;;;;;;8.97;4.83;;;;;;;7.94;100.00;101905.34;5093147;28;20420;-70
2022/11/11 15:00:32;;;;;;;13.38;6.60;;;;;;;7.98;100.00;101902.34;5094192;28;20139;-71
2022/11/11 15:03:23;;;;;;;8.40;4.97;;;;;;;7.88;100.00;101898.69;5094139;28;20583;-72
2022/11/11 15:06:17;;;;;;;9.43;5.20;;;;;;;7.88;100.00;101904.81;5094299;28;20477;-71
2022/11/11 15:09:25;;;;;;;10.05;5.38;;;;;;;7.81;100.00;101908.91;5093998;28;20124;-71
2022/11/11 15:12:30;;;;;;;12.38;5.65;;;;;;;7.70;100.00;101894.78;5093769;28;20047;-72
2022/11/11 15:15:26;;;;;;;13.40;5.35;;;;;;;7.74;100.00;101897.06;5094141;28;20121;-71
2022/11/11 15:18:52;;;;;;;10.13;6.17;;;;;;;7.62;100.00;101903.28;5094062;28;20094;-71
2022/11/11 15:21:43;;;;;;;10.02;5.32;;;;;;;7.56;100.00;101893.13;5092813;28;20326;-74
2022/11/11 15:25:00;;;;;;;9.90;5.93;;;;;;;7.54;100.00;101906.50;5093721;28;20051;-74
2022/11/11 15:28:02;;;;;;;11.27;5.40;;;;;;;7.48;100.00;101906.13;5093865;28;20054;-72
2022/11/11 15:31:01;;;;;;;13.82;5.60;;;;;;;7.50;100.00;101907.72;5093270;28;20055;-73
2022/11/11 15:34:04;;;;;;;11.63;5.03;;;;;;;7.48;100.00;101909.59;5093784;28;20097;-73
2022/11/11 15:37:01;;;;;;;9.88;5.72;;;;;;;7.54;100.00;101906.50;5093238;28;20062;-72
2022/11/11 15:39:49;;;;;;;10.95;5.80;;;;;;;7.59;100.00;101916.78;5092558;28;20124;-71
2022/11/11 15:42:38;;;;;;;9.07;5.28;;;;;;;7.54;100.00;101903.84;5093168;28;20539;-70
2022/11/11 15:45:27;;;;;;;11.90;5.10;;;;;;;7.47;100.00;101904.44;5093331;28;20128;-72
2022/11/11 15:48:19;;;;;;;10.23;5.43;;;;;;;7.36;100.00;101905.19;5093400;28;20098;-70
2022/11/11 15:51:26;;;;;;;12.18;6.07;;;;;;;7.35;100.00;101887.59;5091665;28;20501;-72
2022/11/11 15:54:25;;;;;;;8.55;5.55;;;;;;;7.46;100.00;101895.63;5092030;28;20508;-70
2022/11/11 15:57:22;;;;;;;10.68;5.63;;;;;;;7.48;100.00;101890.22;5092947;28;20051;-71
2022/11/11 16:00:24;;;;;;;9.93;5.50;;;;;;;7.48;100.00;101891.06;5092768;28;20130;-72
2022/11/11 16:03:17;;;;;;;10.05;5.05;;;;;;;7.49;100.00;101887.44;5092892;28;20485;-72
2022/11/11 16:06:04;;;;;;;12.82;4.97;;;;;;;7.49;100.00;101892.72;5091871;28;20055;-71
2022/11/11 16:08:51;;;;;;;10.30;5.25;;;;;;;7.47;100.00;101896.47;5092877;28;20055;-71
2022/11/11 16:11:37;;;;;;;;;;;;;;;7.52;100.00;101895.19;5092867;28;20118;-71
2022/11/11 16:14:28;;;;;;;17.73;5.63;;;;;;;7.52;100.00;101891.69;5093040;28;19923;-72
2022/11/11 16:17:14;;;;;;;11.82;5.65;;;;;;;7.52;100.00;101899.63;5093177;28;20536;-72
2022/11/11 16:19:58;;;;;;;11.18;6.05;;;;;;;7.53;100.00;101901.31;5093140;28;20046;-72
2022/11/11 16:22:45;;;;;;;11.98;6.28;;;;;;;7.57;100.00;101908.09;5093041;28;20189;-74
2022/11/11 16:25:29;;;;;;;13.88;6.43;;;;;;;7.59;100.00;101907.03;5092825;28;20046;-73
2022/11/11 16:28:15;;;;;;;11.70;6.43;;;;;;;7.60;100.00;101916.66;5092490;28;20095;-73
2022/11/11 16:30:58;;;;;;;10.38;6.28;;;;;;;7.65;100.00;101913.69;5092457;28;20188;-72
2022/11/11 16:33:42;;;;;;;14.65;7.10;;;;;;;7.66;100.00;101918.03;5092559;28;20063;-73
2022/11/11 16:36:27;;;;;;;13.68;6.13;;;;;;;7.68;100.00;101913.44;5092723;28;20527;-72
2022/11/11 16:39:26;;;;;;;15.95;5.78;;;;;;;7.63;100.00;101910.31;5092727;28;20591;-73
2022/11/11 16:42:20;;;;;;;10.05;4.70;;;;;;;7.57;100.00;101914.25;5092461;28;20055;-73
2022/11/11 16:45:17;;;;;;;8.40;4.68;;;;;;;7.55;100.00;101912.66;5092244;28;20054;-72
2022/11/11 16:48:01;;;;;;;10.07;6.25;;;;;;;7.56;100.00;101912.56;5092309;28;20043;-73
2022/11/11 16:50:58;;;;;;;12.73;5.05;;;;;;;7.45;100.00;101912.50;5091975;28;20082;-72
2022/11/11 16:54:08;;;;;;;14.63;5.50;;;;;;;7.49;100.00;101902.50;5092504;28;20046;-73
2022/11/11 16:56:58;;;;;;;8.90;5.20;;;;;;;7.46;100.00;101889.47;5092202;28;20043;-72
2022/11/11 16:59:46;;;;;;;9.75;4.57;;;;;;;7.38;100.00;101882.09;5092174;28;20479;-73
2022/11/11 17:02:30;;;;;;;12.02;5.57;;;;;;;7.45;100.00;101891.28;5092228;28;20412;-74
2022/11/11 17:05:14;;;;;;;9.07;5.07;;;;;;;7.38;100.00;101895.34;5092347;28;20138;-73
2022/11/11 17:07:58;;;;;;;9.98;5.55;;;;;;;7.45;100.00;101891.28;5091972;28;20055;-73
2022/11/11 17:10:42;;;;;;;11.30;5.82;;;;;;;7.46;100.00;101881.53;5091890;28;20043;-74
2022/11/11 17:13:27;;;;;;;10.85;5.03;;;;;;;7.42;100.00;101891.50;5091216;28;20055;-73
2022/11/11 17:16:12;;;;;;;9.75;4.75;;;;;;;7.35;100.00;101888.44;5091606;28;20147;-71
2022/11/11 17:18:59;;;;;;;12.05;6.18;;;;;;;7.31;100.00;101888.81;5091960;28;20105;-74
2022/11/11 17:21:43;;;;;;;12.90;5.32;;;;;;;7.32;100.00;101891.34;5091518;28;20101;-72
2022/11/11 17:24:29;;;;;;;10.40;6.45;;;;;;;7.33;100.00;101889.53;5091776;28;20516;-72
2022/11/11 17:27:13;;;;;;;13.85;6.63;;;;;;;7.30;100.00;101895.91;5091737;28;20051;-72
2022/11/11 17:29:57;;;;;;;12.73;6.35;;;;;;;7.22;100.00;101900.91;5091727;28;20094;-73
2022/11/11 17:32:41;;;;;;;13.95;6.35;;;;;;;7.28;100.00;101897.81;5092094;28;20047;-72
2022/11/11 17:35:25;;;;;;;13.27;6.75;;;;;;;7.32;100.00;101896.66;5091888;28;20051;-72
2022/11/11 17:38:09;;;;;;;10.70;5.57;;;;;;;7.28;100.00;101900.47;5091748;28;20131;-73
2022/11/11 17:40:53;;;;;;;11.65;6.28;;;;;;;7.27;100.00;101905.88;5091434;28;20047;-72
2022/11/11 17:43:37;;;;;;;10.20;5.60;;;;;;;7.23;100.00;101902.59;5090581;28;20055;-73
2022/11/11 17:46:21;;;;;;;10.05;5.70;;;;;;;7.20;100.00;101902.00;5091526;28;20051;-73
2022/11/11 17:49:05;;;;;;;10.98;6.22;;;;;;;7.04;100.00;101881.91;5091676;28;20101;-75
2022/11/11 17:51:49;;;;;;;11.50;5.75;;;;;;;7.16;100.00;101889.91;5091285;28;20135;-74
2022/11/11 17:54:33;;;;;;;15.68;5.78;;;;;;;7.20;100.00;101886.94;5091700;28;20093;-73
2022/11/11 17:57:17;;;;;;;10.80;6.10;;;;;;;7.22;100.00;101885.00;5091780;28;20085;-72
2022/11/11 18:00:01;;;;;;;13.02;6.15;;;;;;;7.27;100.00;101885.53;5091561;28;20094;-73
2022/11/11 18:02:44;;;;;;;14.10;6.53;;;;;;;7.19;100.00;101885.25;5090755;28;20067;-71
2022/11/11 18:05:28;;;;;;;13.48;5.22;;;;;;;7.25;100.00;101886.59;5091432;28;20054;-72
2022/11/11 18:08:13;;;;;;;11.02;6.05;;;;;;;7.28;100.00;101891.66;5090837;28;20062;-72
2022/11/11 18:11:01;;;;;;;11.60;6.43;;;;;;;7.31;100.00;101897.59;5090425;28;20516;-72
2022/11/11 18:13:45;;;;;;;12.90;7.35;;;;;;;7.34;100.00;101899.19;5091117;28;20558;-72
2022/11/11 18:16:29;;;;;;;9.50;5.20;;;;;;;7.34;100.00;101902.66;5090308;28;20051;-73
2022/11/11 18:19:13;;;;;;;11.10;5.88;;;;;;;7.33;100.00;101902.78;5091357;28;20055;-71
2022/11/11 18:21:57;;;;;;;16.08;5.63;;;;;;;7.37;100.00;101919.31;5090996;28;20055;-71
2022/11/11 18:24:41;;;;;;;13.45;6.78;;;;;;;7.40;100.00;101922.59;5090290;28;20404;-71
2022/11/11 18:27:25;;;;;;;11.68;6.13;;;;;;;7.43;100.00;101918.84;5091427;28;20051;-71
2022/11/11 18:30:09;;;;;;;12.13;5.97;;;;;;;7.33;100.00;101913.41;5092389;28;20503;-70
2022/11/11 18:32:53;;;;;;;13.80;7.22;;;;;;;7.33;100.00;101916.03;5093829;28;20051;-71
2022/11/11 18:35:37;;;;;;;15.85;6.57;;;;;;;7.25;100.00;101916.59;5093719;28;20051;-70
2022/11/11 18:38:22;;;;;;;11.27;5.38;;;;;;;7.17;100.00;101910.16;5094684;28;20066;-71